createdAt,value
2023-03-13T00:01:22.601Z,6.73
2023-03-13T00:04:25.882Z,5.73
2023-03-13T00:07:30.457Z,6.80
2023-03-13T00:10:33.711Z,6.63
2023-03-13T00:13:37.015Z,5.77
2023-03-13T00:16:40.679Z,6.23
2023-03-13T00:19:43.904Z,7.37
2023-03-13T00:22:48.474Z,6.13
2023-03-13T00:25:58.518Z,7.33
2023-03-13T00:29:01.764Z,6.77
2023-03-13T00:32:05.761Z,6.17
2023-03-13T00:35:09.634Z,6.47
2023-03-13T00:38:14.201Z,5.93
2023-03-13T00:41:18.815Z,6.73
2023-03-13T00:44:22.024Z,7.70
2023-03-13T00:47:25.504Z,6.20
2023-03-13T00:50:28.655Z,6.53
2023-03-13T00:53:33.342Z,7.40
2023-03-13T00:56:37.145Z,6.87
2023-03-13T00:59:40.388Z,6.57
2023-03-13T01:02:44.269Z,6.70
2023-03-13T01:05:55.923Z,5.70
2023-03-13T01:09:01.128Z,5.63
2023-03-13T01:12:04.573Z,5.70
2023-03-13T01:15:09.926Z,6.00
2023-03-13T01:18:15.472Z,6.33
2023-03-13T01:21:19.993Z,6.33
2023-03-13T01:24:24.723Z,6.87
2023-03-13T01:27:27.904Z,7.13
2023-03-13T01:30:31.089Z,7.60
2023-03-13T01:33:34.455Z,7.90
2023-03-13T01:36:38.868Z,7.10
2023-03-13T01:39:43.886Z,6.20
2023-03-13T01:42:57.277Z,6.90
2023-03-13T01:46:04.235Z,7.23
2023-03-13T01:49:10.846Z,6.93
2023-03-13T01:52:17.112Z,7.13
2023-03-13T01:55:22.004Z,6.27
2023-03-13T01:58:25.938Z,6.87
2023-03-13T02:01:30.234Z,6.87
2023-03-13T02:04:44.966Z,7.40
2023-03-13T02:07:51.997Z,6.60
2023-03-13T02:11:04.835Z,7.07
2023-03-13T02:14:08.486Z,6.40
2023-03-13T02:17:12.401Z,5.63
2023-03-13T02:20:18.688Z,6.30
2023-03-13T02:23:29.034Z,6.00
2023-03-13T02:26:33.657Z,5.77
2023-03-13T02:29:36.923Z,5.10
2023-03-13T02:32:41.314Z,5.50
2023-03-13T02:35:45.765Z,5.80
2023-03-13T02:38:54.919Z,5.87
2023-03-13T02:42:00.675Z,5.77
2023-03-13T02:45:03.862Z,5.13
2023-03-13T02:48:07.281Z,5.07
2023-03-13T02:51:17.868Z,6.13
2023-03-13T02:54:23.990Z,6.20
2023-03-13T02:57:29.353Z,5.60
2023-03-13T03:00:32.538Z,5.50
2023-03-13T03:03:37.095Z,6.03
2023-03-13T03:06:40.286Z,4.90
2023-03-13T03:09:43.464Z,4.90
2023-03-13T03:12:48.061Z,5.90
2023-03-13T03:15:51.281Z,4.53
2023-03-13T03:18:54.501Z,6.00
2023-03-13T03:21:57.664Z,5.60
2023-03-13T03:25:00.835Z,5.77
2023-03-13T03:28:05.570Z,4.80
2023-03-13T03:31:10.128Z,5.30
2023-03-13T03:34:13.304Z,4.47
2023-03-13T03:37:16.541Z,5.30
2023-03-13T03:40:21.444Z,5.03
2023-03-13T03:43:26.465Z,5.27
2023-03-13T03:46:29.654Z,6.30
2023-03-13T03:49:32.853Z,5.67
2023-03-13T03:52:36.043Z,4.33
2023-03-13T03:55:39.157Z,5.73
2023-03-13T03:58:43.691Z,5.00
2023-03-13T04:01:46.877Z,4.47
2023-03-13T04:04:50.078Z,4.70
2023-03-13T04:07:53.257Z,4.30
2023-03-13T04:10:56.480Z,4.40
2023-03-13T04:14:00.992Z,4.53
2023-03-13T04:17:04.206Z,4.50
2023-03-13T04:20:08.489Z,5.40
2023-03-13T04:23:11.854Z,4.90
2023-03-13T04:26:15.003Z,5.20
2023-03-13T04:29:19.543Z,4.43
2023-03-13T04:32:22.725Z,4.83
2023-03-13T04:35:25.962Z,4.53
2023-03-13T04:38:29.151Z,4.67
2023-03-13T04:41:32.458Z,5.70
2023-03-13T04:44:36.968Z,5.20
2023-03-13T04:47:40.315Z,5.90
2023-03-13T04:50:43.484Z,5.67
2023-03-13T04:53:46.634Z,5.53
2023-03-13T04:56:50.174Z,6.07
2023-03-13T04:59:54.713Z,5.03
2023-03-13T05:02:57.839Z,5.27
2023-03-13T05:06:00.997Z,4.73
2023-03-13T05:09:04.803Z,4.90
2023-03-13T05:12:08.589Z,5.10
2023-03-13T05:15:13.511Z,6.47
2023-03-13T05:18:16.735Z,5.90
2023-03-13T05:21:19.964Z,5.73
2023-03-13T05:24:23.217Z,5.17
2023-03-13T05:27:26.440Z,5.63
2023-03-13T05:30:31.102Z,5.17
2023-03-13T05:33:34.273Z,6.17
2023-03-13T05:36:37.477Z,6.57
2023-03-13T05:39:40.706Z,6.00
2023-03-13T05:42:43.879Z,5.70
2023-03-13T05:45:48.441Z,5.17
2023-03-13T05:48:52.830Z,6.07
2023-03-13T05:51:55.986Z,5.80
2023-03-13T05:54:59.172Z,6.60
2023-03-13T05:58:02.431Z,8.23
2023-03-13T06:01:11.951Z,8.77
2023-03-13T06:04:15.227Z,6.97
2023-03-13T06:07:18.575Z,7.47
2023-03-13T06:10:21.736Z,7.93
2023-03-13T06:13:24.975Z,8.13
2023-03-13T06:16:29.646Z,7.60
2023-03-13T06:19:33.176Z,8.60
2023-03-13T06:22:36.359Z,8.83
2023-03-13T06:25:39.815Z,7.57
2023-03-13T06:28:43.062Z,7.60
2023-03-13T06:31:47.735Z,10.50
2023-03-13T06:34:51.037Z,10.87
2023-03-13T06:37:54.889Z,14.17
2023-03-13T06:40:58.265Z,16.17
2023-03-13T06:44:01.499Z,9.70
2023-03-13T06:47:06.412Z,8.73
2023-03-13T06:50:10.480Z,11.77
2023-03-13T06:53:17.100Z,12.10
2023-03-13T06:56:21.772Z,14.17
2023-03-13T06:59:24.954Z,10.33
2023-03-13T07:02:29.441Z,7.10
2023-03-13T07:05:32.684Z,6.37
2023-03-13T07:08:36.818Z,7.33
2023-03-13T07:11:39.969Z,7.80
2023-03-13T07:14:43.169Z,7.23
2023-03-13T07:17:47.755Z,8.10
2023-03-13T07:20:54.529Z,6.70
2023-03-13T07:23:57.656Z,7.80
2023-03-13T07:27:07.272Z,7.70
2023-03-13T07:30:12.194Z,7.13
2023-03-13T07:33:16.752Z,8.13
2023-03-13T07:36:20.216Z,6.53
2023-03-13T07:39:23.578Z,7.80
2023-03-13T07:42:26.810Z,7.13
2023-03-13T07:45:29.988Z,8.27
2023-03-13T07:48:36.815Z,7.23
2023-03-13T07:51:44.052Z,8.23
2023-03-13T07:54:47.511Z,8.07
2023-03-13T07:57:50.698Z,8.33
2023-03-13T08:00:53.826Z,8.00
2023-03-13T08:03:58.906Z,8.50
2023-03-13T08:07:02.052Z,7.57
2023-03-13T08:10:06.032Z,8.33
2023-03-13T08:13:09.265Z,8.87
2023-03-13T08:16:13.886Z,8.37
2023-03-13T08:19:18.485Z,8.13
2023-03-13T08:22:21.676Z,7.93
2023-03-13T08:25:25.127Z,8.80
2023-03-13T08:28:28.308Z,9.53
2023-03-13T08:31:33.356Z,8.30
2023-03-13T08:34:39.486Z,9.53
2023-03-13T08:37:42.661Z,8.60
2023-03-13T08:40:45.894Z,8.97
2023-03-13T08:43:49.423Z,8.33
2023-03-13T08:46:52.593Z,10.70
2023-03-13T08:49:58.198Z,8.63
2023-03-13T08:53:01.349Z,10.80
2023-03-13T08:56:05.595Z,9.90
2023-03-13T08:59:08.785Z,11.30
2023-03-13T09:02:12.105Z,9.17
2023-03-13T09:05:16.910Z,9.83
2023-03-13T09:08:20.127Z,8.87
2023-03-13T09:11:23.729Z,9.20
2023-03-13T09:14:26.881Z,8.07
2023-03-13T09:17:30.034Z,10.47
2023-03-13T09:20:34.604Z,9.07
2023-03-13T09:23:37.788Z,8.10
2023-03-13T09:26:46.492Z,9.57
2023-03-13T09:29:55.076Z,11.07
2023-03-13T09:32:58.346Z,10.40
2023-03-13T09:36:02.956Z,9.30
2023-03-13T09:39:06.193Z,10.47
2023-03-13T09:42:15.678Z,9.80
2023-03-13T09:45:25.735Z,10.25
2023-03-13T09:48:32.655Z,9.82
2023-03-13T09:51:41.279Z,8.02
2023-03-13T09:54:49.341Z,8.65
2023-03-13T09:57:55.936Z,8.10
2023-03-13T10:01:02.221Z,7.45
2023-03-13T10:04:15.256Z,7.90
2023-03-13T10:07:20.987Z,7.15
2023-03-13T10:10:34.997Z,6.70
2023-03-13T10:13:44.057Z,6.68
2023-03-13T10:16:51.280Z,7.22
2023-03-13T10:19:59.636Z,6.85
2023-03-13T10:23:09.191Z,6.47
2023-03-13T10:26:17.872Z,6.95
2023-03-13T10:29:23.807Z,6.40
2023-03-13T10:32:28.829Z,6.82
2023-03-13T10:35:37.277Z,6.90
2023-03-13T10:38:53.413Z,6.45
2023-03-13T10:42:10.416Z,7.18
2023-03-13T10:45:17.746Z,8.43
2023-03-13T10:48:22.905Z,6.70
2023-03-13T10:51:31.849Z,6.28
2023-03-13T10:54:40.520Z,6.38
2023-03-13T10:57:53.626Z,6.93
2023-03-13T11:01:17.176Z,6.93
2023-03-13T11:04:29.544Z,6.40
2023-03-13T11:07:36.180Z,6.63
2023-03-13T11:10:54.874Z,5.65
2023-03-13T11:14:10.010Z,5.85
2023-03-13T11:17:30.731Z,5.57
2023-03-13T11:20:36.755Z,5.20
2023-03-13T11:23:44.334Z,6.63
2023-03-13T11:27:04.629Z,6.83
2023-03-13T11:30:22.990Z,6.30
2023-03-13T11:33:33.329Z,6.30
2023-03-13T11:36:40.018Z,5.30
2023-03-13T11:39:56.607Z,4.80
2023-03-13T11:43:25.497Z,5.27
2023-03-13T11:46:43.317Z,4.70
2023-03-13T11:50:03.331Z,5.43
2023-03-13T11:53:23.818Z,6.20
2023-03-13T11:56:32.721Z,5.77
2023-03-13T11:59:46.888Z,6.07
2023-03-13T12:02:54.991Z,5.00
2023-03-13T12:06:02.362Z,5.50
2023-03-13T12:09:12.530Z,5.40
2023-03-13T12:12:22.768Z,5.63
2023-03-13T12:15:31.204Z,5.60
2023-03-13T12:18:38.507Z,5.30
2023-03-13T12:21:48.387Z,6.20
2023-03-13T12:24:57.512Z,6.00
2023-03-13T12:28:10.596Z,5.67
2023-03-13T12:31:23.206Z,5.60
2023-03-13T12:34:32.053Z,5.83
2023-03-13T12:37:43.157Z,4.90
2023-03-13T12:40:52.131Z,5.72
2023-03-13T12:44:08.412Z,5.35
2023-03-13T12:47:20.298Z,5.10
2023-03-13T12:50:36.066Z,5.10
2023-03-13T12:54:06.754Z,5.00
2023-03-13T12:57:42.522Z,4.43
2023-03-13T13:00:48.106Z,5.07
2023-03-13T13:03:57.464Z,3.80
2023-03-13T13:07:03.073Z,4.17
2023-03-13T13:10:22.585Z,3.97
2023-03-13T13:13:32.077Z,4.20
2023-03-13T13:16:35.828Z,3.47
2023-03-13T13:19:48.570Z,3.60
2023-03-13T13:22:52.794Z,3.63
2023-03-13T13:26:18.493Z,3.75
2023-03-13T13:29:57.233Z,3.00
2023-03-13T13:33:33.770Z,2.72
2023-03-13T13:36:45.160Z,3.50
2023-03-13T13:39:50.372Z,4.00
2023-03-13T13:42:56.353Z,3.38
2023-03-13T13:46:06.117Z,4.07
2023-03-13T13:49:17.400Z,3.50
2023-03-13T13:52:43.601Z,3.63
2023-03-13T13:55:47.150Z,4.00
2023-03-13T13:58:50.951Z,4.60
2023-03-13T14:02:28.466Z,4.40
2023-03-13T14:05:33.859Z,3.70
2023-03-13T14:08:42.006Z,4.20
2023-03-13T14:11:45.639Z,3.70
2023-03-13T14:14:49.599Z,3.90
2023-03-13T14:17:54.887Z,4.20
2023-03-13T14:21:02.652Z,4.40
2023-03-13T14:24:16.410Z,3.87
2023-03-13T14:27:22.221Z,4.23
2023-03-13T14:30:27.379Z,6.10
2023-03-13T14:33:30.637Z,4.10
2023-03-13T14:36:47.583Z,4.13
2023-03-13T14:39:52.116Z,4.20
2023-03-13T14:42:58.347Z,3.63
2023-03-13T14:46:02.766Z,4.10
2023-03-13T14:49:19.176Z,5.10
2023-03-13T14:52:25.779Z,3.83
2023-03-13T14:55:40.482Z,6.90
2023-03-13T14:58:43.717Z,7.80
2023-03-13T15:01:47.693Z,4.97
2023-03-13T15:04:53.023Z,3.93
2023-03-13T15:07:56.387Z,3.63
2023-03-13T15:11:01.336Z,3.90
2023-03-13T15:14:05.020Z,3.50
2023-03-13T15:17:24.184Z,3.67
2023-03-13T15:20:28.995Z,3.37
2023-03-13T15:23:32.344Z,3.70
2023-03-13T15:26:36.891Z,3.07
2023-03-13T15:29:40.084Z,3.57
2023-03-13T15:32:46.609Z,4.17
2023-03-13T15:35:51.404Z,4.10
2023-03-13T15:38:54.940Z,3.93
2023-03-13T15:41:59.574Z,4.83
2023-03-13T15:45:02.825Z,3.83
2023-03-13T15:48:15.639Z,3.80
2023-03-13T15:51:19.111Z,3.73
2023-03-13T15:54:22.282Z,3.90
2023-03-13T15:57:27.595Z,3.47
2023-03-13T16:00:30.780Z,3.60
2023-03-13T16:03:33.927Z,3.30
2023-03-13T16:06:37.133Z,5.03
2023-03-13T16:09:40.523Z,4.47
2023-03-13T16:12:45.074Z,4.40
2023-03-13T16:15:49.080Z,4.70
2023-03-13T16:18:53.729Z,3.80
2023-03-13T16:21:57.201Z,3.97
2023-03-13T16:25:00.385Z,3.77
2023-03-13T16:28:04.924Z,3.53
2023-03-13T16:31:09.197Z,3.80
2023-03-13T16:34:12.442Z,4.60
2023-03-13T16:37:18.123Z,3.50
2023-03-13T16:40:24.221Z,3.70
2023-03-13T16:43:28.793Z,4.90
2023-03-13T16:46:36.669Z,3.83
2023-03-13T16:49:40.560Z,3.90
2023-03-13T16:52:43.755Z,4.43
2023-03-13T16:55:46.887Z,4.23
2023-03-13T16:58:51.834Z,4.30
2023-03-13T17:01:55.277Z,5.10
2023-03-13T17:04:58.692Z,5.53
2023-03-13T17:08:01.878Z,5.33
2023-03-13T17:11:05.509Z,5.23
2023-03-13T17:14:10.720Z,4.77
2023-03-13T17:17:17.706Z,4.50
2023-03-13T17:20:23.782Z,5.63
2023-03-13T17:23:27.106Z,4.93
2023-03-13T17:26:34.533Z,5.20
2023-03-13T17:29:39.058Z,5.43
2023-03-13T17:32:42.264Z,4.20
2023-03-13T17:35:46.172Z,6.80
2023-03-13T17:38:54.464Z,5.73
2023-03-13T17:42:00.639Z,5.10
2023-03-13T17:45:08.160Z,4.60
2023-03-13T17:48:15.314Z,5.07
2023-03-13T17:51:21.629Z,5.87
2023-03-13T17:54:25.865Z,6.13
2023-03-13T17:57:30.076Z,6.60
2023-03-13T18:00:35.649Z,8.10
2023-03-13T18:03:40.682Z,7.20
2023-03-13T18:06:46.425Z,7.80
2023-03-13T18:09:49.729Z,11.40
2023-03-13T18:12:53.809Z,9.90
2023-03-13T18:15:58.796Z,12.23
2023-03-13T18:19:02.925Z,14.00
2023-03-13T18:22:13.633Z,12.70
2023-03-13T18:25:17.584Z,11.00
2023-03-13T18:28:21.977Z,10.07
2023-03-13T18:31:32.934Z,9.70
2023-03-13T18:34:40.822Z,8.83
2023-03-13T18:37:49.733Z,8.37
2023-03-13T18:40:54.203Z,9.47
2023-03-13T18:43:59.942Z,11.17
2023-03-13T18:47:14.572Z,10.47
2023-03-13T18:50:25.288Z,10.53
2023-03-13T18:53:32.365Z,10.50
2023-03-13T18:56:36.925Z,9.30
2023-03-13T18:59:42.345Z,9.10
2023-03-13T19:02:50.582Z,10.30
2023-03-13T19:05:54.598Z,8.03
2023-03-13T19:09:01.320Z,9.00
2023-03-13T19:12:06.613Z,7.90
2023-03-13T19:15:12.680Z,8.50
2023-03-13T19:18:19.215Z,8.60
2023-03-13T19:21:26.842Z,8.60
2023-03-13T19:24:31.425Z,8.40
2023-03-13T19:27:35.865Z,8.47
2023-03-13T19:30:43.934Z,10.27
2023-03-13T19:33:50.013Z,10.53
2023-03-13T19:36:55.108Z,9.37
2023-03-13T19:40:00.506Z,9.57
2023-03-13T19:43:04.800Z,9.70
2023-03-13T19:46:23.641Z,9.40
2023-03-13T19:49:31.855Z,9.63
2023-03-13T19:52:38.725Z,9.30
2023-03-13T19:55:43.675Z,9.33
2023-03-13T19:58:49.922Z,9.17
2023-03-13T20:01:55.886Z,8.87
2023-03-13T20:05:01.924Z,9.30
2023-03-13T20:08:10.405Z,9.60
2023-03-13T20:11:17.193Z,10.00
2023-03-13T20:14:21.904Z,10.40
2023-03-13T20:17:26.472Z,12.70
2023-03-13T20:20:34.197Z,17.70
2023-03-13T20:23:38.747Z,16.43
2023-03-13T20:26:46.461Z,11.63
2023-03-13T20:29:51.829Z,10.10
2023-03-13T20:32:59.792Z,9.50
2023-03-13T20:36:09.429Z,8.67
2023-03-13T20:39:14.800Z,9.20
2023-03-13T20:42:21.012Z,8.77
2023-03-13T20:45:27.525Z,9.37
2023-03-13T20:48:32.326Z,9.63
2023-03-13T20:51:38.393Z,9.03
2023-03-13T20:54:42.696Z,9.30
2023-03-13T20:57:47.152Z,9.80
2023-03-13T21:00:52.193Z,9.90
2023-03-13T21:03:56.743Z,9.30
2023-03-13T21:07:04.710Z,9.53
2023-03-13T21:10:09.830Z,9.87
2023-03-13T21:13:13.777Z,10.23
2023-03-13T21:16:18.657Z,9.43
2023-03-13T21:19:22.938Z,8.97
2023-03-13T21:22:29.730Z,9.27
2023-03-13T21:25:33.024Z,8.00
2023-03-13T21:28:36.433Z,8.97
2023-03-13T21:31:39.901Z,9.30
2023-03-13T21:34:44.363Z,10.30
2023-03-13T21:37:49.458Z,9.00
2023-03-13T21:40:52.982Z,8.90
2023-03-13T21:43:56.460Z,8.33
2023-03-13T21:46:59.714Z,8.27
2023-03-13T21:50:03.930Z,7.90
2023-03-13T21:53:08.522Z,8.70
2023-03-13T21:56:15.315Z,8.33
2023-03-13T21:59:19.152Z,7.73
2023-03-13T22:02:22.365Z,7.87
2023-03-13T22:05:26.274Z,7.87
2023-03-13T22:08:30.911Z,9.40
2023-03-13T22:11:34.390Z,11.43
2023-03-13T22:14:37.630Z,9.90
2023-03-13T22:17:40.803Z,10.90
2023-03-13T22:20:44.531Z,10.77
2023-03-13T22:23:49.040Z,9.20
2023-03-13T22:26:52.204Z,11.27
2023-03-13T22:29:57.090Z,8.63
2023-03-13T22:33:00.386Z,8.27
2023-03-13T22:36:04.199Z,8.97
2023-03-13T22:39:08.724Z,8.87
2023-03-13T22:42:11.918Z,7.80
2023-03-13T22:45:16.047Z,7.90
2023-03-13T22:48:19.144Z,8.37
2023-03-13T22:51:22.335Z,7.03
2023-03-13T22:54:26.870Z,7.47
2023-03-13T22:57:30.213Z,8.30
2023-03-13T23:00:33.501Z,9.00
2023-03-13T23:03:36.904Z,10.53
2023-03-13T23:06:40.092Z,10.47
2023-03-13T23:09:44.955Z,11.37
2023-03-13T23:12:48.152Z,8.23
2023-03-13T23:15:58.494Z,9.80
2023-03-13T23:19:03.305Z,9.10
2023-03-13T23:22:06.477Z,6.87
2023-03-13T23:25:12.202Z,7.10
2023-03-13T23:28:15.457Z,12.47
2023-03-13T23:31:20.838Z,9.80
2023-03-13T23:34:24.159Z,9.23
2023-03-13T23:37:27.360Z,9.40
2023-03-13T23:40:32.683Z,8.83
2023-03-13T23:43:36.279Z,9.43
2023-03-13T23:46:39.503Z,8.80
2023-03-13T23:49:42.868Z,9.27
2023-03-13T23:52:46.054Z,7.63
2023-03-13T23:55:58.380Z,9.10
2023-03-13T23:59:01.562Z,9.87
